sensor_id;sensor_type;location;lat;lon;timestamp;P1;durP1;ratioP1;P2;durP2;ratioP2
75823;SDS011;64457;51.976;9.834;2023-04-25T00:00:05;16.93;;;6.30;;
75823;SDS011;64457;51.976;9.834;2023-04-25T00:02:36;15.60;;;5.63;;
75823;SDS011;64457;51.976;9.834;2023-04-25T00:05:05;13.93;;;5.00;;
75823;SDS011;64457;51.976;9.834;2023-04-25T00:07:35;14.33;;;5.03;;
75823;SDS011;64457;51.976;9.834;2023-04-25T00:10:04;16.60;;;5.17;;
75823;SDS011;64457;51.976;9.834;2023-04-25T00:12:34;25.30;;;6.20;;
75823;SDS011;64457;51.976;9.834;2023-04-25T00:15:03;13.33;;;5.20;;
75823;SDS011;64457;51.976;9.834;2023-04-25T00:17:33;19.43;;;5.33;;
75823;SDS011;64457;51.976;9.834;2023-04-25T00:20:01;17.90;;;5.10;;
75823;SDS011;64457;51.976;9.834;2023-04-25T00:22:36;15.37;;;5.43;;
75823;SDS011;64457;51.976;9.834;2023-04-25T00:25:04;13.73;;;5.23;;
75823;SDS011;64457;51.976;9.834;2023-04-25T00:27:33;14.90;;;5.40;;
75823;SDS011;64457;51.976;9.834;2023-04-25T00:30:01;14.03;;;5.40;;
75823;SDS011;64457;51.976;9.834;2023-04-25T00:32:29;16.60;;;5.30;;
75823;SDS011;64457;51.976;9.834;2023-04-25T00:34:57;20.57;;;5.40;;
75823;SDS011;64457;51.976;9.834;2023-04-25T00:37:25;24.20;;;6.40;;
75823;SDS011;64457;51.976;9.834;2023-04-25T00:39:57;17.67;;;5.20;;
75823;SDS011;64457;51.976;9.834;2023-04-25T00:42:26;15.97;;;5.63;;
75823;SDS011;64457;51.976;9.834;2023-04-25T00:44:55;14.77;;;5.13;;
75823;SDS011;64457;51.976;9.834;2023-04-25T00:47:23;17.83;;;5.53;;
75823;SDS011;64457;51.976;9.834;2023-04-25T00:49:52;17.70;;;5.83;;
75823;SDS011;64457;51.976;9.834;2023-04-25T00:52:24;13.57;;;4.77;;
75823;SDS011;64457;51.976;9.834;2023-04-25T00:54:53;18.40;;;5.07;;
75823;SDS011;64457;51.976;9.834;2023-04-25T00:57:23;14.43;;;5.17;;
75823;SDS011;64457;51.976;9.834;2023-04-25T00:59:51;19.77;;;5.97;;
75823;SDS011;64457;51.976;9.834;2023-04-25T01:02:21;16.10;;;5.50;;
75823;SDS011;64457;51.976;9.834;2023-04-25T01:04:49;20.47;;;5.70;;
75823;SDS011;64457;51.976;9.834;2023-04-25T01:07:16;18.57;;;5.97;;
75823;SDS011;64457;51.976;9.834;2023-04-25T01:09:44;18.67;;;6.03;;
75823;SDS011;64457;51.976;9.834;2023-04-25T01:12:14;20.77;;;5.97;;
75823;SDS011;64457;51.976;9.834;2023-04-25T01:14:42;17.63;;;5.87;;
75823;SDS011;64457;51.976;9.834;2023-04-25T01:17:11;13.93;;;5.40;;
75823;SDS011;64457;51.976;9.834;2023-04-25T01:19:40;12.10;;;5.10;;
75823;SDS011;64457;51.976;9.834;2023-04-25T01:22:09;16.40;;;5.53;;
75823;SDS011;64457;51.976;9.834;2023-04-25T01:24:38;16.97;;;6.03;;
75823;SDS011;64457;51.976;9.834;2023-04-25T01:27:06;14.07;;;5.93;;
75823;SDS011;64457;51.976;9.834;2023-04-25T01:29:34;19.10;;;7.03;;
75823;SDS011;64457;51.976;9.834;2023-04-25T01:32:02;18.90;;;7.53;;
75823;SDS011;64457;51.976;9.834;2023-04-25T01:34:31;21.60;;;6.87;;
75823;SDS011;64457;51.976;9.834;2023-04-25T01:36:59;23.50;;;7.57;;
75823;SDS011;64457;51.976;9.834;2023-04-25T01:39:29;22.27;;;7.00;;
75823;SDS011;64457;51.976;9.834;2023-04-25T01:41:58;19.10;;;6.20;;
75823;SDS011;64457;51.976;9.834;2023-04-25T01:44:27;22.93;;;7.20;;
75823;SDS011;64457;51.976;9.834;2023-04-25T01:46:56;17.93;;;7.00;;
75823;SDS011;64457;51.976;9.834;2023-04-25T01:49:23;17.77;;;6.50;;
75823;SDS011;64457;51.976;9.834;2023-04-25T01:51:51;19.50;;;7.20;;
75823;SDS011;64457;51.976;9.834;2023-04-25T01:54:19;16.57;;;7.57;;
75823;SDS011;64457;51.976;9.834;2023-04-25T01:56:51;17.90;;;6.70;;
75823;SDS011;64457;51.976;9.834;2023-04-25T01:59:20;19.70;;;6.83;;
75823;SDS011;64457;51.976;9.834;2023-04-25T02:01:47;18.43;;;7.47;;
75823;SDS011;64457;51.976;9.834;2023-04-25T02:04:16;23.53;;;7.97;;
75823;SDS011;64457;51.976;9.834;2023-04-25T02:06:44;19.93;;;7.90;;
75823;SDS011;64457;51.976;9.834;2023-04-25T02:09:11;20.70;;;7.73;;
75823;SDS011;64457;51.976;9.834;2023-04-25T02:11:39;20.97;;;7.40;;
75823;SDS011;64457;51.976;9.834;2023-04-25T02:14:10;20.23;;;7.77;;
75823;SDS011;64457;51.976;9.834;2023-04-25T02:16:37;25.77;;;7.57;;
75823;SDS011;64457;51.976;9.834;2023-04-25T02:19:05;18.70;;;7.40;;
75823;SDS011;64457;51.976;9.834;2023-04-25T02:21:33;19.53;;;7.40;;
75823;SDS011;64457;51.976;9.834;2023-04-25T02:24:02;18.13;;;7.50;;
75823;SDS011;64457;51.976;9.834;2023-04-25T02:26:32;21.73;;;8.30;;
75823;SDS011;64457;51.976;9.834;2023-04-25T02:29:00;24.90;;;8.47;;
75823;SDS011;64457;51.976;9.834;2023-04-25T02:31:29;18.70;;;8.10;;
75823;SDS011;64457;51.976;9.834;2023-04-25T02:33:57;19.57;;;8.60;;
75823;SDS011;64457;51.976;9.834;2023-04-25T02:36:24;17.23;;;8.13;;
75823;SDS011;64457;51.976;9.834;2023-04-25T02:38:51;24.20;;;9.23;;
75823;SDS011;64457;51.976;9.834;2023-04-25T02:41:19;25.20;;;8.87;;
75823;SDS011;64457;51.976;9.834;2023-04-25T02:43:48;21.53;;;8.20;;
75823;SDS011;64457;51.976;9.834;2023-04-25T02:46:15;21.27;;;8.50;;
75823;SDS011;64457;51.976;9.834;2023-04-25T02:48:46;20.17;;;8.37;;
75823;SDS011;64457;51.976;9.834;2023-04-25T02:51:15;18.07;;;8.23;;
75823;SDS011;64457;51.976;9.834;2023-04-25T02:53:42;19.10;;;8.83;;
75823;SDS011;64457;51.976;9.834;2023-04-25T02:56:12;21.00;;;8.67;;
75823;SDS011;64457;51.976;9.834;2023-04-25T02:58:40;17.27;;;7.20;;
75823;SDS011;64457;51.976;9.834;2023-04-25T03:01:07;22.67;;;8.23;;
75823;SDS011;64457;51.976;9.834;2023-04-25T03:03:35;19.13;;;7.90;;
75823;SDS011;64457;51.976;9.834;2023-04-25T03:06:04;16.13;;;7.83;;
75823;SDS011;64457;51.976;9.834;2023-04-25T03:08:33;16.13;;;7.67;;
75823;SDS011;64457;51.976;9.834;2023-04-25T03:11:01;19.17;;;7.97;;
75823;SDS011;64457;51.976;9.834;2023-04-25T03:13:29;24.00;;;7.33;;
75823;SDS011;64457;51.976;9.834;2023-04-25T03:15:56;18.53;;;7.50;;
75823;SDS011;64457;51.976;9.834;2023-04-25T03:18:24;18.10;;;8.70;;
75823;SDS011;64457;51.976;9.834;2023-04-25T03:20:52;18.67;;;8.30;;
75823;SDS011;64457;51.976;9.834;2023-04-25T03:23:22;17.40;;;7.80;;
75823;SDS011;64457;51.976;9.834;2023-04-25T03:25:49;16.73;;;8.00;;
75823;SDS011;64457;51.976;9.834;2023-04-25T03:28:17;15.67;;;7.60;;
75823;SDS011;64457;51.976;9.834;2023-04-25T03:30:45;15.47;;;6.80;;
75823;SDS011;64457;51.976;9.834;2023-04-25T03:33:12;16.23;;;7.60;;
75823;SDS011;64457;51.976;9.834;2023-04-25T03:35:41;16.73;;;7.20;;
75823;SDS011;64457;51.976;9.834;2023-04-25T03:38:09;14.97;;;6.80;;
75823;SDS011;64457;51.976;9.834;2023-04-25T03:40:38;19.13;;;7.57;;
75823;SDS011;64457;51.976;9.834;2023-04-25T03:43:05;15.50;;;7.00;;
75823;SDS011;64457;51.976;9.834;2023-04-25T03:45:33;18.33;;;7.73;;
75823;SDS011;64457;51.976;9.834;2023-04-25T03:48:01;14.30;;;6.70;;
75823;SDS011;64457;51.976;9.834;2023-04-25T03:50:29;17.33;;;6.77;;
75823;SDS011;64457;51.976;9.834;2023-04-25T03:52:57;16.10;;;5.87;;
75823;SDS011;64457;51.976;9.834;2023-04-25T03:55:24;18.03;;;6.00;;
75823;SDS011;64457;51.976;9.834;2023-04-25T03:57:55;16.93;;;6.20;;
75823;SDS011;64457;51.976;9.834;2023-04-25T04:00:25;13.30;;;5.83;;
75823;SDS011;64457;51.976;9.834;2023-04-25T04:02:53;17.67;;;5.87;;
75823;SDS011;64457;51.976;9.834;2023-04-25T04:05:21;16.33;;;5.53;;
75823;SDS011;64457;51.976;9.834;2023-04-25T04:07:49;18.03;;;5.80;;
75823;SDS011;64457;51.976;9.834;2023-04-25T04:10:17;16.33;;;5.10;;
75823;SDS011;64457;51.976;9.834;2023-04-25T04:12:45;12.10;;;4.90;;
75823;SDS011;64457;51.976;9.834;2023-04-25T04:15:14;18.97;;;5.10;;
75823;SDS011;64457;51.976;9.834;2023-04-25T04:17:43;16.63;;;4.93;;
75823;SDS011;64457;51.976;9.834;2023-04-25T04:20:12;15.60;;;4.80;;
75823;SDS011;64457;51.976;9.834;2023-04-25T04:22:39;19.10;;;5.93;;
75823;SDS011;64457;51.976;9.834;2023-04-25T04:25:07;19.53;;;5.10;;
75823;SDS011;64457;51.976;9.834;2023-04-25T04:27:37;20.77;;;5.63;;
75823;SDS011;64457;51.976;9.834;2023-04-25T04:30:06;17.90;;;5.37;;
75823;SDS011;64457;51.976;9.834;2023-04-25T04:32:36;20.70;;;4.90;;
75823;SDS011;64457;51.976;9.834;2023-04-25T04:35:03;23.23;;;5.77;;
75823;SDS011;64457;51.976;9.834;2023-04-25T04:37:34;19.90;;;6.17;;
75823;SDS011;64457;51.976;9.834;2023-04-25T04:40:02;17.00;;;5.67;;
75823;SDS011;64457;51.976;9.834;2023-04-25T04:42:31;19.90;;;5.30;;
75823;SDS011;64457;51.976;9.834;2023-04-25T04:44:59;30.17;;;5.70;;
75823;SDS011;64457;51.976;9.834;2023-04-25T04:47:26;21.73;;;5.00;;
75823;SDS011;64457;51.976;9.834;2023-04-25T04:49:59;18.90;;;5.60;;
75823;SDS011;64457;51.976;9.834;2023-04-25T04:52:26;26.80;;;6.37;;
75823;SDS011;64457;51.976;9.834;2023-04-25T04:54:53;20.57;;;5.10;;
75823;SDS011;64457;51.976;9.834;2023-04-25T04:57:21;30.10;;;5.10;;
75823;SDS011;64457;51.976;9.834;2023-04-25T04:59:49;21.50;;;5.50;;
75823;SDS011;64457;51.976;9.834;2023-04-25T05:02:18;19.33;;;4.70;;
75823;SDS011;64457;51.976;9.834;2023-04-25T05:04:47;32.03;;;6.47;;
75823;SDS011;64457;51.976;9.834;2023-04-25T05:07:17;19.93;;;5.30;;
75823;SDS011;64457;51.976;9.834;2023-04-25T05:09:45;21.00;;;4.93;;
75823;SDS011;64457;51.976;9.834;2023-04-25T05:12:14;30.47;;;6.37;;
75823;SDS011;64457;51.976;9.834;2023-04-25T05:14:42;24.00;;;5.03;;
75823;SDS011;64457;51.976;9.834;2023-04-25T05:17:10;22.03;;;5.33;;
75823;SDS011;64457;51.976;9.834;2023-04-25T05:19:39;22.87;;;5.53;;
75823;SDS011;64457;51.976;9.834;2023-04-25T05:22:07;27.10;;;5.83;;
75823;SDS011;64457;51.976;9.834;2023-04-25T05:24:36;23.23;;;6.70;;
75823;SDS011;64457;51.976;9.834;2023-04-25T05:27:04;15.67;;;5.10;;
75823;SDS011;64457;51.976;9.834;2023-04-25T05:29:32;26.30;;;5.77;;
75823;SDS011;64457;51.976;9.834;2023-04-25T05:32:00;23.37;;;5.23;;
75823;SDS011;64457;51.976;9.834;2023-04-25T05:34:29;18.77;;;5.60;;
75823;SDS011;64457;51.976;9.834;2023-04-25T05:36:57;19.50;;;5.50;;
75823;SDS011;64457;51.976;9.834;2023-04-25T05:39:24;23.33;;;6.00;;
75823;SDS011;64457;51.976;9.834;2023-04-25T05:41:53;20.87;;;5.80;;
75823;SDS011;64457;51.976;9.834;2023-04-25T05:44:21;25.13;;;5.73;;
75823;SDS011;64457;51.976;9.834;2023-04-25T05:46:49;19.07;;;5.63;;
75823;SDS011;64457;51.976;9.834;2023-04-25T05:49:17;22.93;;;5.13;;
75823;SDS011;64457;51.976;9.834;2023-04-25T05:51:45;22.40;;;6.77;;
75823;SDS011;64457;51.976;9.834;2023-04-25T05:54:13;27.27;;;6.00;;
75823;SDS011;64457;51.976;9.834;2023-04-25T05:56:41;18.77;;;5.57;;
75823;SDS011;64457;51.976;9.834;2023-04-25T05:59:10;24.97;;;6.07;;
75823;SDS011;64457;51.976;9.834;2023-04-25T06:01:37;28.83;;;6.40;;
75823;SDS011;64457;51.976;9.834;2023-04-25T06:04:05;20.37;;;6.03;;
75823;SDS011;64457;51.976;9.834;2023-04-25T06:06:32;15.40;;;5.10;;
75823;SDS011;64457;51.976;9.834;2023-04-25T06:09:00;26.60;;;5.63;;
75823;SDS011;64457;51.976;9.834;2023-04-25T06:11:28;29.03;;;6.77;;
75823;SDS011;64457;51.976;9.834;2023-04-25T06:13:56;19.80;;;5.73;;
75823;SDS011;64457;51.976;9.834;2023-04-25T06:16:25;18.90;;;5.20;;
75823;SDS011;64457;51.976;9.834;2023-04-25T06:18:52;26.40;;;5.60;;
75823;SDS011;64457;51.976;9.834;2023-04-25T06:21:19;20.30;;;5.13;;
75823;SDS011;64457;51.976;9.834;2023-04-25T06:23:47;22.30;;;5.00;;
75823;SDS011;64457;51.976;9.834;2023-04-25T06:26:15;19.00;;;4.70;;
75823;SDS011;64457;51.976;9.834;2023-04-25T06:28:42;19.63;;;5.63;;
75823;SDS011;64457;51.976;9.834;2023-04-25T06:31:10;18.60;;;5.30;;
75823;SDS011;64457;51.976;9.834;2023-04-25T06:33:40;21.83;;;5.77;;
75823;SDS011;64457;51.976;9.834;2023-04-25T06:36:07;25.40;;;4.87;;
75823;SDS011;64457;51.976;9.834;2023-04-25T06:38:35;19.57;;;4.30;;
75823;SDS011;64457;51.976;9.834;2023-04-25T06:41:03;21.03;;;4.80;;
75823;SDS011;64457;51.976;9.834;2023-04-25T06:43:31;26.77;;;4.80;;
75823;SDS011;64457;51.976;9.834;2023-04-25T06:45:59;18.80;;;4.27;;
75823;SDS011;64457;51.976;9.834;2023-04-25T06:48:27;18.80;;;5.17;;
75823;SDS011;64457;51.976;9.834;2023-04-25T06:50:57;18.23;;;4.80;;
75823;SDS011;64457;51.976;9.834;2023-04-25T06:53:25;24.17;;;5.00;;
75823;SDS011;64457;51.976;9.834;2023-04-25T06:55:54;21.50;;;5.00;;
75823;SDS011;64457;51.976;9.834;2023-04-25T06:58:23;25.80;;;5.97;;
75823;SDS011;64457;51.976;9.834;2023-04-25T07:00:51;25.57;;;5.03;;
75823;SDS011;64457;51.976;9.834;2023-04-25T07:03:19;24.77;;;5.60;;
75823;SDS011;64457;51.976;9.834;2023-04-25T07:05:47;22.20;;;4.87;;
75823;SDS011;64457;51.976;9.834;2023-04-25T07:08:17;18.43;;;4.63;;
75823;SDS011;64457;51.976;9.834;2023-04-25T07:10:45;22.10;;;4.53;;
75823;SDS011;64457;51.976;9.834;2023-04-25T07:13:13;20.90;;;4.37;;
75823;SDS011;64457;51.976;9.834;2023-04-25T07:15:41;17.80;;;3.87;;
75823;SDS011;64457;51.976;9.834;2023-04-25T07:18:10;14.87;;;3.13;;
75823;SDS011;64457;51.976;9.834;2023-04-25T07:20:38;13.50;;;2.97;;
75823;SDS011;64457;51.976;9.834;2023-04-25T07:23:06;24.43;;;3.40;;
75823;SDS011;64457;51.976;9.834;2023-04-25T07:25:36;14.50;;;3.00;;
75823;SDS011;64457;51.976;9.834;2023-04-25T07:28:03;13.47;;;3.00;;
75823;SDS011;64457;51.976;9.834;2023-04-25T07:30:31;13.87;;;3.10;;
75823;SDS011;64457;51.976;9.834;2023-04-25T07:33:01;17.13;;;2.90;;
75823;SDS011;64457;51.976;9.834;2023-04-25T07:35:28;18.80;;;2.90;;
75823;SDS011;64457;51.976;9.834;2023-04-25T07:37:56;22.87;;;3.30;;
75823;SDS011;64457;51.976;9.834;2023-04-25T07:40:24;16.50;;;2.80;;
75823;SDS011;64457;51.976;9.834;2023-04-25T07:42:54;17.00;;;3.13;;
75823;SDS011;64457;51.976;9.834;2023-04-25T07:45:25;24.40;;;4.00;;
75823;SDS011;64457;51.976;9.834;2023-04-25T07:47:53;17.30;;;3.40;;
75823;SDS011;64457;51.976;9.834;2023-04-25T07:50:21;19.10;;;3.00;;
75823;SDS011;64457;51.976;9.834;2023-04-25T07:52:50;17.50;;;3.40;;
75823;SDS011;64457;51.976;9.834;2023-04-25T07:55:18;21.23;;;3.20;;
75823;SDS011;64457;51.976;9.834;2023-04-25T07:57:46;15.40;;;3.30;;
75823;SDS011;64457;51.976;9.834;2023-04-25T08:00:18;15.93;;;3.10;;
75823;SDS011;64457;51.976;9.834;2023-04-25T08:02:47;17.80;;;3.00;;
75823;SDS011;64457;51.976;9.834;2023-04-25T08:05:16;18.83;;;3.33;;
75823;SDS011;64457;51.976;9.834;2023-04-25T08:07:46;14.47;;;2.93;;
75823;SDS011;64457;51.976;9.834;2023-04-25T08:10:14;16.20;;;3.00;;
75823;SDS011;64457;51.976;9.834;2023-04-25T08:12:42;15.30;;;3.13;;
75823;SDS011;64457;51.976;9.834;2023-04-25T08:15:11;12.87;;;3.00;;
75823;SDS011;64457;51.976;9.834;2023-04-25T08:17:41;14.63;;;2.57;;
75823;SDS011;64457;51.976;9.834;2023-04-25T08:20:11;21.30;;;3.40;;
75823;SDS011;64457;51.976;9.834;2023-04-25T08:22:39;18.87;;;2.80;;
75823;SDS011;64457;51.976;9.834;2023-04-25T08:25:07;11.83;;;2.90;;
75823;SDS011;64457;51.976;9.834;2023-04-25T08:27:35;12.77;;;2.87;;
75823;SDS011;64457;51.976;9.834;2023-04-25T08:30:03;15.10;;;2.80;;
75823;SDS011;64457;51.976;9.834;2023-04-25T08:32:33;13.80;;;2.73;;
75823;SDS011;64457;51.976;9.834;2023-04-25T08:35:06;11.10;;;3.23;;
75823;SDS011;64457;51.976;9.834;2023-04-25T08:37:34;11.50;;;2.83;;
75823;SDS011;64457;51.976;9.834;2023-04-25T08:40:04;19.17;;;3.60;;
75823;SDS011;64457;51.976;9.834;2023-04-25T08:42:34;18.13;;;2.80;;
75823;SDS011;64457;51.976;9.834;2023-04-25T08:45:04;13.17;;;2.73;;
75823;SDS011;64457;51.976;9.834;2023-04-25T08:47:33;13.50;;;2.27;;
75823;SDS011;64457;51.976;9.834;2023-04-25T08:50:02;14.60;;;2.50;;
75823;SDS011;64457;51.976;9.834;2023-04-25T08:52:35;10.80;;;2.03;;
75823;SDS011;64457;51.976;9.834;2023-04-25T08:55:05;10.57;;;2.50;;
75823;SDS011;64457;51.976;9.834;2023-04-25T08:57:36;12.13;;;2.50;;
75823;SDS011;64457;51.976;9.834;2023-04-25T09:00:05;11.80;;;2.63;;
75823;SDS011;64457;51.976;9.834;2023-04-25T09:02:34;13.53;;;2.30;;
75823;SDS011;64457;51.976;9.834;2023-04-25T09:05:07;15.00;;;2.90;;
75823;SDS011;64457;51.976;9.834;2023-04-25T09:07:41;9.77;;;2.47;;
75823;SDS011;64457;51.976;9.834;2023-04-25T09:10:10;14.30;;;2.57;;
75823;SDS011;64457;51.976;9.834;2023-04-25T09:12:38;9.70;;;2.60;;
75823;SDS011;64457;51.976;9.834;2023-04-25T09:15:07;8.70;;;2.10;;
75823;SDS011;64457;51.976;9.834;2023-04-25T09:17:36;12.73;;;2.50;;
75823;SDS011;64457;51.976;9.834;2023-04-25T09:20:08;12.43;;;3.17;;
75823;SDS011;64457;51.976;9.834;2023-04-25T09:22:38;19.63;;;3.20;;
75823;SDS011;64457;51.976;9.834;2023-04-25T09:25:08;12.00;;;2.10;;
75823;SDS011;64457;51.976;9.834;2023-04-25T09:27:40;11.40;;;2.83;;
75823;SDS011;64457;51.976;9.834;2023-04-25T09:30:17;13.23;;;2.50;;
75823;SDS011;64457;51.976;9.834;2023-04-25T09:32:46;14.37;;;2.93;;
75823;SDS011;64457;51.976;9.834;2023-04-25T09:35:24;31.17;;;3.10;;
75823;SDS011;64457;51.976;9.834;2023-04-25T09:37:53;10.13;;;2.43;;
75823;SDS011;64457;51.976;9.834;2023-04-25T09:40:22;9.57;;;2.17;;
75823;SDS011;64457;51.976;9.834;2023-04-25T09:42:49;11.13;;;2.00;;
75823;SDS011;64457;51.976;9.834;2023-04-25T09:45:17;11.43;;;2.60;;
75823;SDS011;64457;51.976;9.834;2023-04-25T09:47:50;12.80;;;2.63;;
75823;SDS011;64457;51.976;9.834;2023-04-25T09:50:24;9.50;;;2.37;;
75823;SDS011;64457;51.976;9.834;2023-04-25T09:53:02;8.50;;;2.10;;
75823;SDS011;64457;51.976;9.834;2023-04-25T09:55:31;15.30;;;2.40;;
75823;SDS011;64457;51.976;9.834;2023-04-25T09:58:00;12.83;;;2.93;;
75823;SDS011;64457;51.976;9.834;2023-04-25T10:00:32;10.33;;;2.50;;
75823;SDS011;64457;51.976;9.834;2023-04-25T10:03:01;12.70;;;2.20;;
75823;SDS011;64457;51.976;9.834;2023-04-25T10:05:32;10.50;;;2.60;;
75823;SDS011;64457;51.976;9.834;2023-04-25T10:08:03;10.90;;;2.40;;
75823;SDS011;64457;51.976;9.834;2023-04-25T10:10:34;14.97;;;2.67;;
75823;SDS011;64457;51.976;9.834;2023-04-25T10:13:04;11.13;;;2.63;;
75823;SDS011;64457;51.976;9.834;2023-04-25T10:15:34;8.47;;;2.40;;
75823;SDS011;64457;51.976;9.834;2023-04-25T10:18:02;33.43;;;17.10;;
75823;SDS011;64457;51.976;9.834;2023-04-25T10:20:33;14.63;;;4.13;;
75823;SDS011;64457;51.976;9.834;2023-04-25T10:23:03;48.40;;;21.03;;
75823;SDS011;64457;51.976;9.834;2023-04-25T10:25:38;21.83;;;9.33;;
75823;SDS011;64457;51.976;9.834;2023-04-25T10:28:08;10.87;;;2.13;;
75823;SDS011;64457;51.976;9.834;2023-04-25T10:30:35;14.40;;;2.33;;
75823;SDS011;64457;51.976;9.834;2023-04-25T10:33:03;11.20;;;3.00;;
75823;SDS011;64457;51.976;9.834;2023-04-25T10:35:46;16.63;;;5.80;;
75823;SDS011;64457;51.976;9.834;2023-04-25T10:38:14;16.37;;;7.57;;
75823;SDS011;64457;51.976;9.834;2023-04-25T10:40:41;18.53;;;7.90;;
75823;SDS011;64457;51.976;9.834;2023-04-25T10:43:33;13.50;;;2.50;;
75823;SDS011;64457;51.976;9.834;2023-04-25T10:46:12;11.37;;;2.60;;
75823;SDS011;64457;51.976;9.834;2023-04-25T10:48:45;13.03;;;4.43;;
75823;SDS011;64457;51.976;9.834;2023-04-25T10:51:17;11.43;;;2.10;;
75823;SDS011;64457;51.976;9.834;2023-04-25T10:53:56;11.70;;;3.07;;
75823;SDS011;64457;51.976;9.834;2023-04-25T10:56:26;15.07;;;4.07;;
75823;SDS011;64457;51.976;9.834;2023-04-25T10:59:05;11.87;;;3.60;;
75823;SDS011;64457;51.976;9.834;2023-04-25T11:01:36;10.03;;;2.33;;
75823;SDS011;64457;51.976;9.834;2023-04-25T11:04:05;8.10;;;2.10;;
75823;SDS011;64457;51.976;9.834;2023-04-25T11:06:50;14.00;;;2.63;;
75823;SDS011;64457;51.976;9.834;2023-04-25T11:09:29;14.27;;;2.93;;
75823;SDS011;64457;51.976;9.834;2023-04-25T11:12:07;12.70;;;2.30;;
75823;SDS011;64457;51.976;9.834;2023-04-25T11:14:38;10.97;;;1.80;;
75823;SDS011;64457;51.976;9.834;2023-04-25T11:17:05;10.57;;;1.77;;
75823;SDS011;64457;51.976;9.834;2023-04-25T11:19:35;8.77;;;1.53;;
75823;SDS011;64457;51.976;9.834;2023-04-25T11:22:04;11.30;;;1.83;;
75823;SDS011;64457;51.976;9.834;2023-04-25T11:24:34;7.20;;;1.50;;
75823;SDS011;64457;51.976;9.834;2023-04-25T11:27:03;7.63;;;1.70;;
75823;SDS011;64457;51.976;9.834;2023-04-25T11:29:33;9.93;;;1.40;;
75823;SDS011;64457;51.976;9.834;2023-04-25T11:32:01;5.60;;;1.50;;
75823;SDS011;64457;51.976;9.834;2023-04-25T11:34:29;6.43;;;1.57;;
75823;SDS011;64457;51.976;9.834;2023-04-25T11:36:58;8.13;;;1.53;;
75823;SDS011;64457;51.976;9.834;2023-04-25T11:39:28;7.10;;;1.47;;
75823;SDS011;64457;51.976;9.834;2023-04-25T11:41:56;12.90;;;2.03;;
75823;SDS011;64457;51.976;9.834;2023-04-25T11:44:24;11.07;;;1.73;;
75823;SDS011;64457;51.976;9.834;2023-04-25T11:46:52;7.83;;;1.80;;
75823;SDS011;64457;51.976;9.834;2023-04-25T11:49:19;11.47;;;1.77;;
75823;SDS011;64457;51.976;9.834;2023-04-25T11:51:48;10.03;;;1.47;;
75823;SDS011;64457;51.976;9.834;2023-04-25T11:54:15;6.87;;;1.17;;
75823;SDS011;64457;51.976;9.834;2023-04-25T11:56:45;9.30;;;1.60;;
75823;SDS011;64457;51.976;9.834;2023-04-25T11:59:13;6.70;;;1.40;;
75823;SDS011;64457;51.976;9.834;2023-04-25T12:01:47;6.70;;;1.80;;
75823;SDS011;64457;51.976;9.834;2023-04-25T12:04:17;8.57;;;1.53;;
75823;SDS011;64457;51.976;9.834;2023-04-25T12:06:46;8.53;;;1.40;;
75823;SDS011;64457;51.976;9.834;2023-04-25T12:09:16;10.80;;;1.70;;
75823;SDS011;64457;51.976;9.834;2023-04-25T12:11:48;15.37;;;2.57;;
75823;SDS011;64457;51.976;9.834;2023-04-25T12:14:20;9.63;;;1.60;;
75823;SDS011;64457;51.976;9.834;2023-04-25T12:16:52;14.17;;;2.00;;
75823;SDS011;64457;51.976;9.834;2023-04-25T12:19:31;11.77;;;2.40;;
75823;SDS011;64457;51.976;9.834;2023-04-25T12:22:00;11.43;;;2.00;;
75823;SDS011;64457;51.976;9.834;2023-04-25T12:24:28;8.27;;;1.77;;
75823;SDS011;64457;51.976;9.834;2023-04-25T12:27:00;15.37;;;2.20;;
75823;SDS011;64457;51.976;9.834;2023-04-25T12:29:30;7.80;;;2.10;;
75823;SDS011;64457;51.976;9.834;2023-04-25T12:31:59;7.90;;;1.90;;
75823;SDS011;64457;51.976;9.834;2023-04-25T12:34:28;10.63;;;2.13;;
75823;SDS011;64457;51.976;9.834;2023-04-25T12:36:57;10.10;;;2.00;;
75823;SDS011;64457;51.976;9.834;2023-04-25T12:39:25;13.50;;;2.10;;
75823;SDS011;64457;51.976;9.834;2023-04-25T12:41:53;7.80;;;1.70;;
75823;SDS011;64457;51.976;9.834;2023-04-25T12:44:22;9.73;;;2.00;;
75823;SDS011;64457;51.976;9.834;2023-04-25T12:46:49;8.43;;;1.60;;
75823;SDS011;64457;51.976;9.834;2023-04-25T12:49:17;8.07;;;2.17;;
75823;SDS011;64457;51.976;9.834;2023-04-25T12:51:45;13.00;;;2.03;;
75823;SDS011;64457;51.976;9.834;2023-04-25T12:54:13;9.57;;;1.97;;
75823;SDS011;64457;51.976;9.834;2023-04-25T12:56:41;8.90;;;1.40;;
75823;SDS011;64457;51.976;9.834;2023-04-25T12:59:08;10.03;;;2.20;;
75823;SDS011;64457;51.976;9.834;2023-04-25T13:01:38;7.90;;;1.90;;
75823;SDS011;64457;51.976;9.834;2023-04-25T13:04:08;7.40;;;1.57;;
75823;SDS011;64457;51.976;9.834;2023-04-25T13:06:36;9.10;;;1.87;;
75823;SDS011;64457;51.976;9.834;2023-04-25T13:09:04;5.77;;;1.53;;
75823;SDS011;64457;51.976;9.834;2023-04-25T13:11:33;10.03;;;1.90;;
75823;SDS011;64457;51.976;9.834;2023-04-25T13:14:01;6.07;;;1.33;;
75823;SDS011;64457;51.976;9.834;2023-04-25T13:16:29;7.40;;;1.70;;
75823;SDS011;64457;51.976;9.834;2023-04-25T13:18:59;8.60;;;1.73;;
75823;SDS011;64457;51.976;9.834;2023-04-25T13:21:29;9.00;;;1.37;;
75823;SDS011;64457;51.976;9.834;2023-04-25T13:23:58;9.53;;;1.60;;
75823;SDS011;64457;51.976;9.834;2023-04-25T13:26:26;7.07;;;1.20;;
75823;SDS011;64457;51.976;9.834;2023-04-25T13:28:53;7.03;;;1.40;;
75823;SDS011;64457;51.976;9.834;2023-04-25T13:31:22;5.80;;;1.30;;
75823;SDS011;64457;51.976;9.834;2023-04-25T13:33:52;7.73;;;1.70;;
75823;SDS011;64457;51.976;9.834;2023-04-25T13:36:32;7.20;;;1.40;;
75823;SDS011;64457;51.976;9.834;2023-04-25T13:38:59;10.73;;;1.50;;
75823;SDS011;64457;51.976;9.834;2023-04-25T13:41:29;7.67;;;1.63;;
75823;SDS011;64457;51.976;9.834;2023-04-25T13:43:58;8.83;;;2.27;;
75823;SDS011;64457;51.976;9.834;2023-04-25T13:46:28;7.73;;;1.57;;
75823;SDS011;64457;51.976;9.834;2023-04-25T13:48:57;7.47;;;1.40;;
75823;SDS011;64457;51.976;9.834;2023-04-25T13:51:29;9.70;;;1.50;;
75823;SDS011;64457;51.976;9.834;2023-04-25T13:53:57;6.80;;;1.30;;
75823;SDS011;64457;51.976;9.834;2023-04-25T13:56:25;9.23;;;1.63;;
75823;SDS011;64457;51.976;9.834;2023-04-25T13:58:53;9.90;;;1.67;;
75823;SDS011;64457;51.976;9.834;2023-04-25T14:01:20;9.10;;;1.80;;
75823;SDS011;64457;51.976;9.834;2023-04-25T14:03:49;8.30;;;1.70;;
75823;SDS011;64457;51.976;9.834;2023-04-25T14:06:18;6.03;;;1.37;;
75823;SDS011;64457;51.976;9.834;2023-04-25T14:08:49;6.83;;;1.50;;
75823;SDS011;64457;51.976;9.834;2023-04-25T14:11:17;9.30;;;2.10;;
75823;SDS011;64457;51.976;9.834;2023-04-25T14:13:48;6.80;;;1.40;;
75823;SDS011;64457;51.976;9.834;2023-04-25T14:16:15;5.43;;;1.23;;
75823;SDS011;64457;51.976;9.834;2023-04-25T14:18:43;9.97;;;1.50;;
75823;SDS011;64457;51.976;9.834;2023-04-25T14:21:12;8.83;;;1.97;;
75823;SDS011;64457;51.976;9.834;2023-04-25T14:23:39;7.40;;;1.50;;
75823;SDS011;64457;51.976;9.834;2023-04-25T14:26:09;11.27;;;1.57;;
75823;SDS011;64457;51.976;9.834;2023-04-25T14:28:37;10.27;;;2.13;;
75823;SDS011;64457;51.976;9.834;2023-04-25T14:31:05;7.70;;;1.50;;
75823;SDS011;64457;51.976;9.834;2023-04-25T14:33:34;7.57;;;1.60;;
75823;SDS011;64457;51.976;9.834;2023-04-25T14:36:08;12.03;;;1.60;;
75823;SDS011;64457;51.976;9.834;2023-04-25T14:38:35;7.23;;;1.30;;
75823;SDS011;64457;51.976;9.834;2023-04-25T14:41:03;7.80;;;1.67;;
75823;SDS011;64457;51.976;9.834;2023-04-25T14:43:35;9.13;;;1.50;;
75823;SDS011;64457;51.976;9.834;2023-04-25T14:46:05;7.30;;;1.67;;
75823;SDS011;64457;51.976;9.834;2023-04-25T14:48:33;6.03;;;1.30;;